sensor_id;sensor_type;location;lat;lon;timestamp;P1;durP1;ratioP1;P2;durP2;ratioP2
39880;SDS011;25554;44.954;10.068;2024-01-27T00:04:35;43.58;;;21.23;;
39880;SDS011;25554;44.954;10.068;2024-01-27T00:07:02;52.45;;;23.00;;
39880;SDS011;25554;44.954;10.068;2024-01-27T00:09:29;45.50;;;22.90;;
39880;SDS011;25554;44.954;10.068;2024-01-27T00:14:21;49.38;;;22.88;;
39880;SDS011;25554;44.954;10.068;2024-01-27T00:16:47;53.88;;;24.83;;
39880;SDS011;25554;44.954;10.068;2024-01-27T00:21:40;48.35;;;23.35;;
39880;SDS011;25554;44.954;10.068;2024-01-27T00:24:10;43.83;;;22.60;;
39880;SDS011;25554;44.954;10.068;2024-01-27T00:26:38;51.60;;;25.10;;
39880;SDS011;25554;44.954;10.068;2024-01-27T00:31:31;44.25;;;22.17;;
39880;SDS011;25554;44.954;10.068;2024-01-27T00:36:23;47.50;;;22.35;;
39880;SDS011;25554;44.954;10.068;2024-01-27T00:41:16;54.92;;;24.13;;
39880;SDS011;25554;44.954;10.068;2024-01-27T00:43:43;51.22;;;25.00;;
39880;SDS011;25554;44.954;10.068;2024-01-27T00:46:09;66.22;;;23.65;;
39880;SDS011;25554;44.954;10.068;2024-01-27T00:48:36;53.90;;;24.63;;
39880;SDS011;25554;44.954;10.068;2024-01-27T00:53:28;72.38;;;27.50;;
39880;SDS011;25554;44.954;10.068;2024-01-27T00:58:21;68.55;;;23.67;;
39880;SDS011;25554;44.954;10.068;2024-01-27T11:34:42;73.73;;;33.77;;
39880;SDS011;25554;44.954;10.068;2024-01-27T11:37:13;79.38;;;37.42;;
39880;SDS011;25554;44.954;10.068;2024-01-27T11:39:40;90.28;;;40.25;;
39880;SDS011;25554;44.954;10.068;2024-01-27T11:42:07;89.70;;;42.35;;
39880;SDS011;25554;44.954;10.068;2024-01-27T11:44:35;97.38;;;44.85;;
39880;SDS011;25554;44.954;10.068;2024-01-27T11:47:01;83.03;;;41.38;;
39880;SDS011;25554;44.954;10.068;2024-01-27T11:49:28;95.35;;;42.28;;
39880;SDS011;25554;44.954;10.068;2024-01-27T11:51:55;99.65;;;43.30;;
39880;SDS011;25554;44.954;10.068;2024-01-27T11:54:22;95.55;;;41.63;;
39880;SDS011;25554;44.954;10.068;2024-01-27T11:56:50;87.25;;;40.58;;
39880;SDS011;25554;44.954;10.068;2024-01-27T11:59:18;91.30;;;41.47;;
39880;SDS011;25554;44.954;10.068;2024-01-27T12:01:48;92.28;;;41.72;;
39880;SDS011;25554;44.954;10.068;2024-01-27T12:04:15;88.05;;;41.03;;
39880;SDS011;25554;44.954;10.068;2024-01-27T12:06:43;89.63;;;41.40;;
39880;SDS011;25554;44.954;10.068;2024-01-27T12:09:10;79.65;;;40.65;;
39880;SDS011;25554;44.954;10.068;2024-01-27T12:11:42;88.43;;;40.50;;
39880;SDS011;25554;44.954;10.068;2024-01-27T12:14:09;88.80;;;40.75;;
39880;SDS011;25554;44.954;10.068;2024-01-27T12:16:57;77.93;;;40.45;;
39880;SDS011;25554;44.954;10.068;2024-01-27T12:19:24;74.05;;;37.95;;
39880;SDS011;25554;44.954;10.068;2024-01-27T12:21:53;74.70;;;38.00;;
39880;SDS011;25554;44.954;10.068;2024-01-27T12:24:19;82.97;;;37.90;;
39880;SDS011;25554;44.954;10.068;2024-01-27T12:26:52;80.05;;;38.88;;
39880;SDS011;25554;44.954;10.068;2024-01-27T12:29:22;73.32;;;36.55;;
39880;SDS011;25554;44.954;10.068;2024-01-27T12:31:48;81.22;;;38.03;;
39880;SDS011;25554;44.954;10.068;2024-01-27T12:34:15;79.13;;;38.15;;
39880;SDS011;25554;44.954;10.068;2024-01-27T12:36:42;80.10;;;40.85;;
39880;SDS011;25554;44.954;10.068;2024-01-27T12:39:09;77.78;;;40.05;;
39880;SDS011;25554;44.954;10.068;2024-01-27T12:41:36;74.05;;;37.15;;
39880;SDS011;25554;44.954;10.068;2024-01-27T12:44:03;76.30;;;36.45;;
39880;SDS011;25554;44.954;10.068;2024-01-27T12:46:29;78.57;;;36.97;;
39880;SDS011;25554;44.954;10.068;2024-01-27T12:48:57;71.13;;;37.70;;
39880;SDS011;25554;44.954;10.068;2024-01-27T12:51:23;78.88;;;36.92;;
39880;SDS011;25554;44.954;10.068;2024-01-27T12:53:50;76.05;;;36.97;;
39880;SDS011;25554;44.954;10.068;2024-01-27T12:56:17;69.07;;;36.40;;
39880;SDS011;25554;44.954;10.068;2024-01-27T12:58:44;68.93;;;36.95;;
39880;SDS011;25554;44.954;10.068;2024-01-27T13:01:10;76.18;;;38.22;;
39880;SDS011;25554;44.954;10.068;2024-01-27T13:03:38;77.90;;;37.55;;
39880;SDS011;25554;44.954;10.068;2024-01-27T13:06:05;70.38;;;36.55;;
39880;SDS011;25554;44.954;10.068;2024-01-27T13:08:33;74.50;;;36.90;;
39880;SDS011;25554;44.954;10.068;2024-01-27T13:11:00;75.13;;;38.08;;
39880;SDS011;25554;44.954;10.068;2024-01-27T13:13:28;75.57;;;35.80;;
39880;SDS011;25554;44.954;10.068;2024-01-27T13:15:54;79.63;;;36.65;;
39880;SDS011;25554;44.954;10.068;2024-01-27T13:18:21;66.15;;;34.67;;
39880;SDS011;25554;44.954;10.068;2024-01-27T13:20:48;63.45;;;35.40;;
39880;SDS011;25554;44.954;10.068;2024-01-27T13:23:14;65.35;;;34.25;;
39880;SDS011;25554;44.954;10.068;2024-01-27T13:25:41;67.53;;;35.60;;
39880;SDS011;25554;44.954;10.068;2024-01-27T13:28:08;73.15;;;37.13;;
39880;SDS011;25554;44.954;10.068;2024-01-27T13:30:37;65.60;;;35.10;;
39880;SDS011;25554;44.954;10.068;2024-01-27T13:33:03;64.75;;;34.65;;
39880;SDS011;25554;44.954;10.068;2024-01-27T13:35:30;67.28;;;36.55;;
39880;SDS011;25554;44.954;10.068;2024-01-27T13:37:57;64.50;;;34.05;;
39880;SDS011;25554;44.954;10.068;2024-01-27T13:42:49;56.03;;;31.80;;
39880;SDS011;25554;44.954;10.068;2024-01-27T13:47:42;61.40;;;31.42;;
39880;SDS011;25554;44.954;10.068;2024-01-27T13:52:35;56.58;;;30.67;;
39880;SDS011;25554;44.954;10.068;2024-01-27T13:55:01;55.65;;;30.23;;
39880;SDS011;25554;44.954;10.068;2024-01-27T13:57:29;55.10;;;31.60;;
39880;SDS011;25554;44.954;10.068;2024-01-27T13:59:55;60.42;;;34.00;;
39880;SDS011;25554;44.954;10.068;2024-01-27T14:02:22;58.17;;;33.70;;
39880;SDS011;25554;44.954;10.068;2024-01-27T14:04:50;64.00;;;34.35;;
39880;SDS011;25554;44.954;10.068;2024-01-27T14:07:17;64.35;;;32.97;;
39880;SDS011;25554;44.954;10.068;2024-01-27T14:09:44;58.30;;;33.90;;
39880;SDS011;25554;44.954;10.068;2024-01-27T14:12:10;61.50;;;33.90;;
39880;SDS011;25554;44.954;10.068;2024-01-27T14:14:37;66.90;;;35.60;;
39880;SDS011;25554;44.954;10.068;2024-01-27T14:17:05;61.97;;;33.15;;
39880;SDS011;25554;44.954;10.068;2024-01-27T14:19:32;54.75;;;31.48;;
39880;SDS011;25554;44.954;10.068;2024-01-27T14:21:59;57.83;;;30.95;;
39880;SDS011;25554;44.954;10.068;2024-01-27T14:24:26;57.03;;;30.95;;
39880;SDS011;25554;44.954;10.068;2024-01-27T14:26:52;55.80;;;30.85;;
39880;SDS011;25554;44.954;10.068;2024-01-27T14:29:19;57.08;;;30.90;;
39880;SDS011;25554;44.954;10.068;2024-01-27T14:34:12;51.05;;;28.20;;
39880;SDS011;25554;44.954;10.068;2024-01-27T14:36:39;54.10;;;29.42;;
39880;SDS011;25554;44.954;10.068;2024-01-27T14:39:06;54.20;;;29.73;;
39880;SDS011;25554;44.954;10.068;2024-01-27T14:41:37;57.75;;;28.95;;
39880;SDS011;25554;44.954;10.068;2024-01-27T14:44:03;58.28;;;30.48;;
39880;SDS011;25554;44.954;10.068;2024-01-27T14:46:30;62.97;;;30.95;;
39880;SDS011;25554;44.954;10.068;2024-01-27T14:48:57;55.35;;;30.48;;
39880;SDS011;25554;44.954;10.068;2024-01-27T14:51:23;54.38;;;29.45;;
39880;SDS011;25554;44.954;10.068;2024-01-27T14:53:50;61.80;;;32.33;;
39880;SDS011;25554;44.954;10.068;2024-01-27T14:56:17;60.25;;;31.92;;
39880;SDS011;25554;44.954;10.068;2024-01-27T14:58:43;56.17;;;30.73;;
39880;SDS011;25554;44.954;10.068;2024-01-27T15:01:16;55.65;;;27.10;;
39880;SDS011;25554;44.954;10.068;2024-01-27T15:03:43;57.80;;;31.40;;
39880;SDS011;25554;44.954;10.068;2024-01-27T15:06:10;58.78;;;30.67;;
39880;SDS011;25554;44.954;10.068;2024-01-27T15:11:03;59.63;;;30.58;;
39880;SDS011;25554;44.954;10.068;2024-01-27T15:13:30;59.60;;;31.40;;
39880;SDS011;25554;44.954;10.068;2024-01-27T15:15:56;60.78;;;31.38;;
39880;SDS011;25554;44.954;10.068;2024-01-27T15:18:23;65.68;;;32.88;;
39880;SDS011;25554;44.954;10.068;2024-01-27T15:20:50;72.63;;;36.25;;
39880;SDS011;25554;44.954;10.068;2024-01-27T15:23:16;80.88;;;37.40;;
39880;SDS011;25554;44.954;10.068;2024-01-27T15:25:44;75.68;;;35.35;;
39880;SDS011;25554;44.954;10.068;2024-01-27T15:28:11;79.50;;;37.78;;
39880;SDS011;25554;44.954;10.068;2024-01-27T15:30:37;74.15;;;35.55;;
39880;SDS011;25554;44.954;10.068;2024-01-27T15:33:04;78.80;;;37.90;;
39880;SDS011;25554;44.954;10.068;2024-01-27T15:35:30;79.93;;;38.50;;
39880;SDS011;25554;44.954;10.068;2024-01-27T15:37:58;84.05;;;40.88;;
39880;SDS011;25554;44.954;10.068;2024-01-27T15:40:25;79.53;;;37.85;;
39880;SDS011;25554;44.954;10.068;2024-01-27T15:42:52;84.57;;;39.20;;
39880;SDS011;25554;44.954;10.068;2024-01-27T15:45:18;76.22;;;37.80;;
39880;SDS011;25554;44.954;10.068;2024-01-27T15:47:45;78.72;;;38.50;;
39880;SDS011;25554;44.954;10.068;2024-01-27T15:50:12;76.45;;;37.35;;
39880;SDS011;25554;44.954;10.068;2024-01-27T15:52:39;82.30;;;39.58;;
39880;SDS011;25554;44.954;10.068;2024-01-27T15:55:06;85.95;;;41.85;;
39880;SDS011;25554;44.954;10.068;2024-01-27T15:57:33;85.43;;;41.40;;
39880;SDS011;25554;44.954;10.068;2024-01-27T16:00:00;85.07;;;41.83;;
39880;SDS011;25554;44.954;10.068;2024-01-27T16:02:26;78.43;;;38.38;;
39880;SDS011;25554;44.954;10.068;2024-01-27T16:04:53;85.35;;;40.13;;
39880;SDS011;25554;44.954;10.068;2024-01-27T16:07:19;87.50;;;41.00;;
39880;SDS011;25554;44.954;10.068;2024-01-27T16:09:49;84.75;;;40.78;;
39880;SDS011;25554;44.954;10.068;2024-01-27T16:12:16;92.30;;;41.42;;
39880;SDS011;25554;44.954;10.068;2024-01-27T16:14:43;81.55;;;40.67;;
39880;SDS011;25554;44.954;10.068;2024-01-27T16:17:12;84.30;;;41.05;;
39880;SDS011;25554;44.954;10.068;2024-01-27T16:19:39;90.63;;;43.78;;
39880;SDS011;25554;44.954;10.068;2024-01-27T16:22:05;89.00;;;42.80;;
39880;SDS011;25554;44.954;10.068;2024-01-27T16:24:32;95.78;;;44.22;;
39880;SDS011;25554;44.954;10.068;2024-01-27T16:26:58;97.05;;;44.30;;
39880;SDS011;25554;44.954;10.068;2024-01-27T16:29:25;88.00;;;42.72;;
39880;SDS011;25554;44.954;10.068;2024-01-27T16:31:52;96.75;;;45.47;;
39880;SDS011;25554;44.954;10.068;2024-01-27T16:34:18;94.95;;;44.40;;
39880;SDS011;25554;44.954;10.068;2024-01-27T16:36:45;102.90;;;46.65;;
39880;SDS011;25554;44.954;10.068;2024-01-27T16:39:11;95.60;;;45.05;;
39880;SDS011;25554;44.954;10.068;2024-01-27T16:41:38;94.80;;;45.00;;
39880;SDS011;25554;44.954;10.068;2024-01-27T16:44:05;95.05;;;45.95;;
39880;SDS011;25554;44.954;10.068;2024-01-27T16:46:31;100.53;;;47.22;;
39880;SDS011;25554;44.954;10.068;2024-01-27T16:48:58;97.72;;;45.60;;
39880;SDS011;25554;44.954;10.068;2024-01-27T16:51:25;92.22;;;44.63;;
39880;SDS011;25554;44.954;10.068;2024-01-27T16:56:18;94.35;;;42.33;;
39880;SDS011;25554;44.954;10.068;2024-01-27T16:58:44;89.18;;;43.70;;
39880;SDS011;25554;44.954;10.068;2024-01-27T17:01:15;89.38;;;44.20;;
39880;SDS011;25554;44.954;10.068;2024-01-27T17:03:45;95.47;;;44.20;;
39880;SDS011;25554;44.954;10.068;2024-01-27T17:06:11;86.13;;;41.55;;
39880;SDS011;25554;44.954;10.068;2024-01-27T17:08:47;96.30;;;44.30;;
39880;SDS011;25554;44.954;10.068;2024-01-27T17:11:16;85.82;;;41.75;;
39880;SDS011;25554;44.954;10.068;2024-01-27T17:13:42;83.80;;;40.03;;
39880;SDS011;25554;44.954;10.068;2024-01-27T17:16:12;89.85;;;41.90;;
39880;SDS011;25554;44.954;10.068;2024-01-27T17:18:42;82.63;;;41.40;;
39880;SDS011;25554;44.954;10.068;2024-01-27T17:21:08;84.72;;;39.78;;
39880;SDS011;25554;44.954;10.068;2024-01-27T17:23:35;79.93;;;38.70;;
39880;SDS011;25554;44.954;10.068;2024-01-27T17:26:07;87.15;;;38.88;;
39880;SDS011;25554;44.954;10.068;2024-01-27T17:28:33;83.05;;;39.63;;
39880;SDS011;25554;44.954;10.068;2024-01-27T17:31:00;90.72;;;41.10;;
39880;SDS011;25554;44.954;10.068;2024-01-27T17:33:34;81.55;;;38.05;;
39880;SDS011;25554;44.954;10.068;2024-01-27T17:36:01;89.13;;;43.22;;
39880;SDS011;25554;44.954;10.068;2024-01-27T17:38:28;91.80;;;43.58;;
39880;SDS011;25554;44.954;10.068;2024-01-27T17:40:54;85.40;;;44.50;;
39880;SDS011;25554;44.954;10.068;2024-01-27T17:43:21;90.57;;;42.42;;
39880;SDS011;25554;44.954;10.068;2024-01-27T17:45:48;80.70;;;40.85;;
39880;SDS011;25554;44.954;10.068;2024-01-27T17:48:14;92.75;;;43.30;;
39880;SDS011;25554;44.954;10.068;2024-01-27T17:50:41;85.18;;;41.08;;
39880;SDS011;25554;44.954;10.068;2024-01-27T17:53:07;75.72;;;37.70;;
39880;SDS011;25554;44.954;10.068;2024-01-27T17:55:36;78.05;;;38.75;;
39880;SDS011;25554;44.954;10.068;2024-01-27T17:58:02;81.05;;;38.70;;
39880;SDS011;25554;44.954;10.068;2024-01-27T18:00:29;79.28;;;40.60;;
39880;SDS011;25554;44.954;10.068;2024-01-27T18:02:56;84.93;;;41.33;;
39880;SDS011;25554;44.954;10.068;2024-01-27T18:05:22;78.15;;;39.15;;
39880;SDS011;25554;44.954;10.068;2024-01-27T18:07:49;92.88;;;42.53;;
39880;SDS011;25554;44.954;10.068;2024-01-27T18:10:15;81.32;;;39.63;;
39880;SDS011;25554;44.954;10.068;2024-01-27T18:12:43;92.10;;;40.42;;
39880;SDS011;25554;44.954;10.068;2024-01-27T18:15:12;93.97;;;44.22;;
39880;SDS011;25554;44.954;10.068;2024-01-27T18:17:38;93.13;;;43.95;;
39880;SDS011;25554;44.954;10.068;2024-01-27T18:20:05;90.63;;;44.05;;
39880;SDS011;25554;44.954;10.068;2024-01-27T18:22:32;97.78;;;45.55;;
39880;SDS011;25554;44.954;10.068;2024-01-27T18:24:59;101.32;;;45.38;;
39880;SDS011;25554;44.954;10.068;2024-01-27T18:27:26;95.90;;;44.38;;
39880;SDS011;25554;44.954;10.068;2024-01-27T18:29:52;101.03;;;44.60;;
39880;SDS011;25554;44.954;10.068;2024-01-27T18:32:19;93.10;;;46.47;;
39880;SDS011;25554;44.954;10.068;2024-01-27T18:34:46;103.10;;;47.60;;
39880;SDS011;25554;44.954;10.068;2024-01-27T18:37:13;93.82;;;46.67;;
39880;SDS011;25554;44.954;10.068;2024-01-27T18:39:39;108.60;;;48.33;;
39880;SDS011;25554;44.954;10.068;2024-01-27T18:42:06;116.57;;;51.63;;
39880;SDS011;25554;44.954;10.068;2024-01-27T18:44:32;109.18;;;51.85;;
39880;SDS011;25554;44.954;10.068;2024-01-27T18:46:59;121.75;;;52.50;;
39880;SDS011;25554;44.954;10.068;2024-01-27T18:49:26;114.13;;;50.90;;
39880;SDS011;25554;44.954;10.068;2024-01-27T18:51:52;113.85;;;51.88;;
39880;SDS011;25554;44.954;10.068;2024-01-27T18:54:20;117.13;;;52.10;;
39880;SDS011;25554;44.954;10.068;2024-01-27T18:56:48;112.85;;;52.83;;
39880;SDS011;25554;44.954;10.068;2024-01-27T18:59:14;115.28;;;51.60;;
39880;SDS011;25554;44.954;10.068;2024-01-27T19:01:43;118.82;;;55.40;;
39880;SDS011;25554;44.954;10.068;2024-01-27T19:04:09;120.68;;;53.80;;
39880;SDS011;25554;44.954;10.068;2024-01-27T19:06:36;123.72;;;54.35;;
39880;SDS011;25554;44.954;10.068;2024-01-27T19:09:03;119.35;;;54.90;;
39880;SDS011;25554;44.954;10.068;2024-01-27T19:11:30;120.03;;;52.70;;
39880;SDS011;25554;44.954;10.068;2024-01-27T19:13:56;116.13;;;53.40;;
39880;SDS011;25554;44.954;10.068;2024-01-27T19:16:23;124.72;;;55.05;;
39880;SDS011;25554;44.954;10.068;2024-01-27T19:18:50;112.75;;;52.45;;
39880;SDS011;25554;44.954;10.068;2024-01-27T19:21:16;114.07;;;53.33;;
39880;SDS011;25554;44.954;10.068;2024-01-27T19:23:43;125.25;;;55.22;;
39880;SDS011;25554;44.954;10.068;2024-01-27T19:26:10;112.50;;;54.15;;
39880;SDS011;25554;44.954;10.068;2024-01-27T19:28:36;127.13;;;57.50;;
39880;SDS011;25554;44.954;10.068;2024-01-27T19:31:03;122.43;;;55.83;;
39880;SDS011;25554;44.954;10.068;2024-01-27T19:33:29;131.57;;;58.33;;
39880;SDS011;25554;44.954;10.068;2024-01-27T19:35:56;122.72;;;57.80;;
39880;SDS011;25554;44.954;10.068;2024-01-27T19:38:22;130.27;;;57.10;;
39880;SDS011;25554;44.954;10.068;2024-01-27T19:40:49;119.95;;;57.25;;
39880;SDS011;25554;44.954;10.068;2024-01-27T19:43:16;119.90;;;54.80;;
39880;SDS011;25554;44.954;10.068;2024-01-27T19:45:43;110.47;;;54.63;;
39880;SDS011;25554;44.954;10.068;2024-01-27T19:48:10;113.63;;;56.90;;
39880;SDS011;25554;44.954;10.068;2024-01-27T19:50:37;126.32;;;55.45;;
39880;SDS011;25554;44.954;10.068;2024-01-27T19:53:03;116.35;;;56.80;;
39880;SDS011;25554;44.954;10.068;2024-01-27T19:55:35;128.43;;;56.28;;
39880;SDS011;25554;44.954;10.068;2024-01-27T19:58:02;116.28;;;55.00;;
39880;SDS011;25554;44.954;10.068;2024-01-27T20:00:30;109.43;;;53.92;;
39880;SDS011;25554;44.954;10.068;2024-01-27T20:02:58;113.65;;;55.58;;
39880;SDS011;25554;44.954;10.068;2024-01-27T20:05:24;115.15;;;54.70;;
39880;SDS011;25554;44.954;10.068;2024-01-27T20:07:51;122.63;;;55.03;;
39880;SDS011;25554;44.954;10.068;2024-01-27T20:10:18;129.07;;;53.10;;
39880;SDS011;25554;44.954;10.068;2024-01-27T20:12:44;107.57;;;51.90;;
39880;SDS011;25554;44.954;10.068;2024-01-27T20:15:12;104.53;;;51.53;;
39880;SDS011;25554;44.954;10.068;2024-01-27T20:17:39;111.65;;;53.08;;
39880;SDS011;25554;44.954;10.068;2024-01-27T20:20:08;104.20;;;52.88;;
39880;SDS011;25554;44.954;10.068;2024-01-27T20:22:35;104.13;;;51.17;;
39880;SDS011;25554;44.954;10.068;2024-01-27T20:25:02;111.40;;;52.17;;
39880;SDS011;25554;44.954;10.068;2024-01-27T20:27:28;116.45;;;54.83;;
39880;SDS011;25554;44.954;10.068;2024-01-27T20:29:56;120.45;;;53.70;;
39880;SDS011;25554;44.954;10.068;2024-01-27T20:32:23;105.88;;;51.42;;
39880;SDS011;25554;44.954;10.068;2024-01-27T20:34:50;112.05;;;56.28;;
39880;SDS011;25554;44.954;10.068;2024-01-27T20:37:18;117.45;;;54.67;;
39880;SDS011;25554;44.954;10.068;2024-01-27T20:39:44;118.32;;;55.53;;
39880;SDS011;25554;44.954;10.068;2024-01-27T20:42:13;119.45;;;56.20;;
39880;SDS011;25554;44.954;10.068;2024-01-27T20:44:40;120.78;;;54.38;;
39880;SDS011;25554;44.954;10.068;2024-01-27T20:47:06;129.45;;;56.25;;
39880;SDS011;25554;44.954;10.068;2024-01-27T20:49:33;106.90;;;51.63;;
39880;SDS011;25554;44.954;10.068;2024-01-27T20:51:59;117.10;;;55.45;;
39880;SDS011;25554;44.954;10.068;2024-01-27T20:54:26;112.15;;;53.13;;
39880;SDS011;25554;44.954;10.068;2024-01-27T20:56:53;117.97;;;54.10;;
39880;SDS011;25554;44.954;10.068;2024-01-27T20:59:19;109.53;;;52.97;;
39880;SDS011;25554;44.954;10.068;2024-01-27T21:01:46;116.70;;;53.58;;
39880;SDS011;25554;44.954;10.068;2024-01-27T21:04:13;114.95;;;53.25;;
39880;SDS011;25554;44.954;10.068;2024-01-27T21:06:40;117.55;;;53.83;;
39880;SDS011;25554;44.954;10.068;2024-01-27T21:09:07;119.80;;;56.88;;
39880;SDS011;25554;44.954;10.068;2024-01-27T21:11:33;119.63;;;53.58;;
39880;SDS011;25554;44.954;10.068;2024-01-27T21:14:00;112.40;;;51.97;;
39880;SDS011;25554;44.954;10.068;2024-01-27T21:16:27;118.13;;;52.95;;
39880;SDS011;25554;44.954;10.068;2024-01-27T21:18:53;108.00;;;51.38;;
39880;SDS011;25554;44.954;10.068;2024-01-27T21:21:20;121.53;;;53.35;;
39880;SDS011;25554;44.954;10.068;2024-01-27T21:23:46;112.10;;;53.03;;
39880;SDS011;25554;44.954;10.068;2024-01-27T21:26:13;108.70;;;51.33;;
39880;SDS011;25554;44.954;10.068;2024-01-27T21:28:40;123.30;;;55.90;;
39880;SDS011;25554;44.954;10.068;2024-01-27T21:31:06;110.43;;;49.40;;
39880;SDS011;25554;44.954;10.068;2024-01-27T21:33:33;122.05;;;58.70;;
39880;SDS011;25554;44.954;10.068;2024-01-27T21:38:26;116.97;;;53.58;;
39880;SDS011;25554;44.954;10.068;2024-01-27T21:40:52;115.53;;;54.15;;
39880;SDS011;25554;44.954;10.068;2024-01-27T21:45:44;112.43;;;49.65;;
39880;SDS011;25554;44.954;10.068;2024-01-27T21:48:10;120.40;;;54.35;;
39880;SDS011;25554;44.954;10.068;2024-01-27T21:53:03;112.15;;;53.10;;
39880;SDS011;25554;44.954;10.068;2024-01-27T21:55:33;132.07;;;53.63;;
39880;SDS011;25554;44.954;10.068;2024-01-27T21:58:02;115.40;;;54.50;;
39880;SDS011;25554;44.954;10.068;2024-01-27T22:00:31;133.25;;;55.95;;
39880;SDS011;25554;44.954;10.068;2024-01-27T22:05:24;110.72;;;49.90;;
39880;SDS011;25554;44.954;10.068;2024-01-27T22:10:17;108.90;;;49.80;;
39880;SDS011;25554;44.954;10.068;2024-01-27T22:12:44;106.93;;;51.88;;
39880;SDS011;25554;44.954;10.068;2024-01-27T22:15:12;120.95;;;52.00;;
39880;SDS011;25554;44.954;10.068;2024-01-27T22:17:38;122.70;;;52.42;;
39880;SDS011;25554;44.954;10.068;2024-01-27T22:20:07;114.18;;;52.47;;
39880;SDS011;25554;44.954;10.068;2024-01-27T22:22:33;139.18;;;54.72;;
39880;SDS011;25554;44.954;10.068;2024-01-27T22:25:00;107.05;;;52.55;;
39880;SDS011;25554;44.954;10.068;2024-01-27T22:27:26;117.75;;;54.30;;
39880;SDS011;25554;44.954;10.068;2024-01-27T22:29:52;114.95;;;53.58;;
39880;SDS011;25554;44.954;10.068;2024-01-27T22:32:18;122.60;;;51.65;;
39880;SDS011;25554;44.954;10.068;2024-01-27T22:37:13;102.68;;;47.17;;
39880;SDS011;25554;44.954;10.068;2024-01-27T22:39:39;102.00;;;48.53;;
39880;SDS011;25554;44.954;10.068;2024-01-27T22:44:31;111.03;;;47.75;;
39880;SDS011;25554;44.954;10.068;2024-01-27T22:46:58;118.38;;;49.55;;
39880;SDS011;25554;44.954;10.068;2024-01-27T22:51:50;99.05;;;47.17;;
39880;SDS011;25554;44.954;10.068;2024-01-27T22:54:17;104.30;;;49.85;;
39880;SDS011;25554;44.954;10.068;2024-01-27T22:56:43;107.10;;;49.38;;
39880;SDS011;25554;44.954;10.068;2024-01-27T23:01:36;100.72;;;45.90;;
39880;SDS011;25554;44.954;10.068;2024-01-27T23:06:29;99.20;;;46.13;;
39880;SDS011;25554;44.954;10.068;2024-01-27T23:08:55;96.00;;;48.20;;
39880;SDS011;25554;44.954;10.068;2024-01-27T23:13:48;99.85;;;44.75;;
39880;SDS011;25554;44.954;10.068;2024-01-27T23:16:14;101.53;;;47.30;;
39880;SDS011;25554;44.954;10.068;2024-01-27T23:18:44;94.03;;;45.20;;
39880;SDS011;25554;44.954;10.068;2024-01-27T23:21:11;97.97;;;48.58;;
39880;SDS011;25554;44.954;10.068;2024-01-27T23:23:38;97.88;;;46.30;;
39880;SDS011;25554;44.954;10.068;2024-01-27T23:26:05;110.32;;;47.72;;
39880;SDS011;25554;44.954;10.068;2024-01-27T23:30:57;93.80;;;44.13;;
39880;SDS011;25554;44.954;10.068;2024-01-27T23:35:50;85.95;;;42.75;;
39880;SDS011;25554;44.954;10.068;2024-01-27T23:40:44;100.35;;;43.13;;
39880;SDS011;25554;44.954;10.068;2024-01-27T23:45:36;97.50;;;42.90;;
39880;SDS011;25554;44.954;10.068;2024-01-27T23:48:03;91.18;;;44.80;;
39880;SDS011;25554;44.954;10.068;2024-01-27T23:50:30;98.03;;;46.78;;
39880;SDS011;25554;44.954;10.068;2024-01-27T23:52:59;108.70;;;50.05;;
39880;SDS011;25554;44.954;10.068;2024-01-27T23:55:33;99.68;;;47.33;;
39880;SDS011;25554;44.954;10.068;2024-01-27T23:58:07;91.72;;;44.53;;
